sensor_id;sensor_type;location;lat;lon;timestamp;P1;durP1;ratioP1;P2;durP2;ratioP2
56307;SDS011;42217;50.422;7.210;2022-10-16T08:15:19;2.75;;;1.13;;
56307;SDS011;42217;50.422;7.210;2022-10-16T08:17:53;2.03;;;1.20;;
56307;SDS011;42217;50.422;7.210;2022-10-16T08:20:23;1.45;;;1.23;;
56307;SDS011;42217;50.422;7.210;2022-10-16T08:22:49;1.17;;;1.10;;
56307;SDS011;42217;50.422;7.210;2022-10-16T08:25:15;1.65;;;1.55;;
56307;SDS011;42217;50.422;7.210;2022-10-16T08:27:46;3.45;;;1.20;;
56307;SDS011;42217;50.422;7.210;2022-10-16T08:30:12;3.25;;;1.23;;
56307;SDS011;42217;50.422;7.210;2022-10-16T08:32:38;0.88;;;0.88;;
56307;SDS011;42217;50.422;7.210;2022-10-16T08:37:34;1.02;;;1.02;;
56307;SDS011;42217;50.422;7.210;2022-10-16T08:40:01;0.80;;;0.80;;
56307;SDS011;42217;50.422;7.210;2022-10-16T08:50:35;1.05;;;0.80;;
56307;SDS011;42217;50.422;7.210;2022-10-16T08:53:04;2.83;;;1.30;;
56307;SDS011;42217;50.422;7.210;2022-10-16T08:55:33;3.40;;;1.60;;
56307;SDS011;42217;50.422;7.210;2022-10-16T08:58:08;0.85;;;0.85;;
56307;SDS011;42217;50.422;7.210;2022-10-16T09:00:44;0.63;;;0.63;;
56307;SDS011;42217;50.422;7.210;2022-10-16T09:06:09;1.00;;;1.00;;
56307;SDS011;42217;50.422;7.210;2022-10-16T09:14:47;1.05;;;1.05;;
56307;SDS011;42217;50.422;7.210;2022-10-16T09:16:51;3.05;;;0.60;;
56307;SDS011;42217;50.422;7.210;2022-10-16T09:19:31;0.70;;;0.70;;
56307;SDS011;42217;50.422;7.210;2022-10-16T09:22:10;1.35;;;1.25;;
56307;SDS011;42217;50.422;7.210;2022-10-16T09:24:39;0.82;;;0.82;;
56307;SDS011;42217;50.422;7.210;2022-10-16T09:27:08;1.30;;;1.20;;
56307;SDS011;42217;50.422;7.210;2022-10-16T09:29:36;0.88;;;0.70;;
56307;SDS011;42217;50.422;7.210;2022-10-16T09:32:15;1.08;;;0.73;;
56307;SDS011;42217;50.422;7.210;2022-10-16T09:34:48;1.10;;;1.00;;
56307;SDS011;42217;50.422;7.210;2022-10-16T09:37:19;1.27;;;1.17;;
56307;SDS011;42217;50.422;7.210;2022-10-16T09:39:47;1.30;;;0.60;;
56307;SDS011;42217;50.422;7.210;2022-10-16T09:42:34;0.60;;;0.60;;
56307;SDS011;42217;50.422;7.210;2022-10-16T09:45:02;1.08;;;0.68;;
56307;SDS011;42217;50.422;7.210;2022-10-16T09:47:29;2.67;;;0.80;;
56307;SDS011;42217;50.422;7.210;2022-10-16T09:49:58;0.60;;;0.60;;
56307;SDS011;42217;50.422;7.210;2022-10-16T09:52:27;1.55;;;0.70;;
56307;SDS011;42217;50.422;7.210;2022-10-16T09:55:01;0.60;;;0.45;;
56307;SDS011;42217;50.422;7.210;2022-10-16T09:57:51;1.10;;;0.70;;
56307;SDS011;42217;50.422;7.210;2022-10-16T10:00:17;0.68;;;0.68;;
56307;SDS011;42217;50.422;7.210;2022-10-16T10:02:44;1.75;;;0.60;;
56307;SDS011;42217;50.422;7.210;2022-10-16T10:05:47;2.30;;;0.50;;
56307;SDS011;42217;50.422;7.210;2022-10-16T10:08:04;0.70;;;0.70;;
56307;SDS011;42217;50.422;7.210;2022-10-16T10:10:36;0.60;;;0.60;;
56307;SDS011;42217;50.422;7.210;2022-10-16T10:13:16;1.25;;;0.50;;
56307;SDS011;42217;50.422;7.210;2022-10-16T10:15:44;0.85;;;0.60;;
56307;SDS011;42217;50.422;7.210;2022-10-16T10:18:20;0.50;;;0.50;;
56307;SDS011;42217;50.422;7.210;2022-10-16T10:21:01;2.20;;;0.88;;
56307;SDS011;42217;50.422;7.210;2022-10-16T10:23:28;0.60;;;0.60;;
56307;SDS011;42217;50.422;7.210;2022-10-16T10:31:24;0.60;;;0.60;;
56307;SDS011;42217;50.422;7.210;2022-10-16T10:37:37;0.93;;;0.93;;
56307;SDS011;42217;50.422;7.210;2022-10-16T10:39:42;1.00;;;0.60;;
56307;SDS011;42217;50.422;7.210;2022-10-16T10:44:57;1.30;;;0.95;;
56307;SDS011;42217;50.422;7.210;2022-10-16T10:56:22;0.77;;;0.77;;
56307;SDS011;42217;50.422;7.210;2022-10-16T11:02:09;0.55;;;0.52;;
56307;SDS011;42217;50.422;7.210;2022-10-16T11:08:02;0.75;;;0.50;;
56307;SDS011;42217;50.422;7.210;2022-10-16T11:10:45;0.60;;;0.60;;
56307;SDS011;42217;50.422;7.210;2022-10-16T11:15:53;1.40;;;0.57;;
56307;SDS011;42217;50.422;7.210;2022-10-16T11:18:29;1.75;;;0.60;;
56307;SDS011;42217;50.422;7.210;2022-10-16T11:21:04;1.23;;;0.70;;
56307;SDS011;42217;50.422;7.210;2022-10-16T11:26:19;1.15;;;0.63;;
56307;SDS011;42217;50.422;7.210;2022-10-16T11:28:49;0.52;;;0.52;;
56307;SDS011;42217;50.422;7.210;2022-10-16T11:31:33;2.35;;;0.80;;
56307;SDS011;42217;50.422;7.210;2022-10-16T11:34:12;0.88;;;0.60;;
56307;SDS011;42217;50.422;7.210;2022-10-16T11:37:12;0.77;;;0.77;;
56307;SDS011;42217;50.422;7.210;2022-10-16T11:39:46;0.57;;;0.57;;
56307;SDS011;42217;50.422;7.210;2022-10-16T11:47:35;0.80;;;0.43;;
56307;SDS011;42217;50.422;7.210;2022-10-16T11:52:52;0.40;;;0.40;;
56307;SDS011;42217;50.422;7.210;2022-10-16T11:55:36;0.65;;;0.63;;
56307;SDS011;42217;50.422;7.210;2022-10-16T11:58:26;0.52;;;0.52;;
56307;SDS011;42217;50.422;7.210;2022-10-16T12:09:02;0.40;;;0.40;;
56307;SDS011;42217;50.422;7.210;2022-10-16T12:16:53;2.30;;;1.10;;
56307;SDS011;42217;50.422;7.210;2022-10-16T12:19:25;0.68;;;0.50;;
56307;SDS011;42217;50.422;7.210;2022-10-16T12:21:56;0.30;;;0.30;;
56307;SDS011;42217;50.422;7.210;2022-10-16T12:24:39;0.43;;;0.30;;
56307;SDS011;42217;50.422;7.210;2022-10-16T12:29:57;0.65;;;0.30;;
56307;SDS011;42217;50.422;7.210;2022-10-16T12:34:59;1.40;;;0.40;;
56307;SDS011;42217;50.422;7.210;2022-10-16T12:37:27;1.20;;;0.40;;
56307;SDS011;42217;50.422;7.210;2022-10-16T12:42:50;0.47;;;0.45;;
56307;SDS011;42217;50.422;7.210;2022-10-16T12:45:23;0.30;;;0.30;;
56307;SDS011;42217;50.422;7.210;2022-10-16T12:47:50;0.38;;;0.38;;
56307;SDS011;42217;50.422;7.210;2022-10-16T12:52:53;0.60;;;0.57;;
56307;SDS011;42217;50.422;7.210;2022-10-16T12:55:19;1.67;;;0.70;;
56307;SDS011;42217;50.422;7.210;2022-10-16T12:58:05;0.40;;;0.40;;
56307;SDS011;42217;50.422;7.210;2022-10-16T13:00:44;0.70;;;0.70;;
56307;SDS011;42217;50.422;7.210;2022-10-16T13:22:43;0.43;;;0.40;;
56307;SDS011;42217;50.422;7.210;2022-10-16T13:25:35;0.40;;;0.40;;
56307;SDS011;42217;50.422;7.210;2022-10-16T13:28:08;0.57;;;0.52;;
56307;SDS011;42217;50.422;7.210;2022-10-16T13:30:39;0.30;;;0.30;;
56307;SDS011;42217;50.422;7.210;2022-10-16T13:35:50;0.40;;;0.40;;
56307;SDS011;42217;50.422;7.210;2022-10-16T13:38:19;0.70;;;0.50;;
56307;SDS011;42217;50.422;7.210;2022-10-16T13:43:17;0.32;;;0.32;;
56307;SDS011;42217;50.422;7.210;2022-10-16T13:45:55;0.40;;;0.40;;
56307;SDS011;42217;50.422;7.210;2022-10-16T13:48:23;0.50;;;0.50;;
56307;SDS011;42217;50.422;7.210;2022-10-16T13:50:58;0.30;;;0.30;;
56307;SDS011;42217;50.422;7.210;2022-10-16T13:53:29;0.40;;;0.30;;
56307;SDS011;42217;50.422;7.210;2022-10-16T13:55:59;0.47;;;0.47;;
56307;SDS011;42217;50.422;7.210;2022-10-16T13:58:28;0.40;;;0.40;;
56307;SDS011;42217;50.422;7.210;2022-10-16T14:01:40;0.55;;;0.40;;
56307;SDS011;42217;50.422;7.210;2022-10-16T14:03:45;0.50;;;0.50;;
56307;SDS011;42217;50.422;7.210;2022-10-16T14:06:13;0.57;;;0.50;;
56307;SDS011;42217;50.422;7.210;2022-10-16T14:11:28;0.40;;;0.40;;
56307;SDS011;42217;50.422;7.210;2022-10-16T14:13:54;0.32;;;0.32;;
56307;SDS011;42217;50.422;7.210;2022-10-16T14:16:25;0.68;;;0.50;;
56307;SDS011;42217;50.422;7.210;2022-10-16T14:21:21;0.65;;;0.65;;
56307;SDS011;42217;50.422;7.210;2022-10-16T14:23:47;1.33;;;0.88;;
56307;SDS011;42217;50.422;7.210;2022-10-16T14:26:15;0.52;;;0.52;;
56307;SDS011;42217;50.422;7.210;2022-10-16T14:28:46;1.15;;;0.40;;
56307;SDS011;42217;50.422;7.210;2022-10-16T14:33:44;0.75;;;0.57;;
56307;SDS011;42217;50.422;7.210;2022-10-16T14:36:11;0.65;;;0.52;;
56307;SDS011;42217;50.422;7.210;2022-10-16T14:38:59;0.60;;;0.60;;
56307;SDS011;42217;50.422;7.210;2022-10-16T14:41:31;1.60;;;0.90;;
56307;SDS011;42217;50.422;7.210;2022-10-16T14:44:05;0.45;;;0.45;;
56307;SDS011;42217;50.422;7.210;2022-10-16T14:46:33;0.57;;;0.57;;
56307;SDS011;42217;50.422;7.210;2022-10-16T14:49:13;2.88;;;0.52;;
56307;SDS011;42217;50.422;7.210;2022-10-16T14:51:45;0.55;;;0.55;;
56307;SDS011;42217;50.422;7.210;2022-10-16T14:54:17;2.25;;;0.85;;
56307;SDS011;42217;50.422;7.210;2022-10-16T14:56:46;0.57;;;0.50;;
56307;SDS011;42217;50.422;7.210;2022-10-16T14:59:17;0.82;;;0.82;;
56307;SDS011;42217;50.422;7.210;2022-10-16T15:01:53;0.40;;;0.40;;
56307;SDS011;42217;50.422;7.210;2022-10-16T15:04:19;0.75;;;0.60;;
56307;SDS011;42217;50.422;7.210;2022-10-16T15:06:45;0.40;;;0.30;;
56307;SDS011;42217;50.422;7.210;2022-10-16T15:09:11;0.55;;;0.50;;
56307;SDS011;42217;50.422;7.210;2022-10-16T15:11:37;0.60;;;0.60;;
56307;SDS011;42217;50.422;7.210;2022-10-16T15:14:03;0.85;;;0.65;;
56307;SDS011;42217;50.422;7.210;2022-10-16T15:16:31;0.60;;;0.60;;
56307;SDS011;42217;50.422;7.210;2022-10-16T15:18:56;0.73;;;0.60;;
56307;SDS011;42217;50.422;7.210;2022-10-16T15:21:30;0.85;;;0.68;;
56307;SDS011;42217;50.422;7.210;2022-10-16T15:23:57;1.65;;;0.75;;
56307;SDS011;42217;50.422;7.210;2022-10-16T15:26:28;0.98;;;0.60;;
56307;SDS011;42217;50.422;7.210;2022-10-16T15:28:55;0.82;;;0.60;;
56307;SDS011;42217;50.422;7.210;2022-10-16T15:31:21;0.57;;;0.57;;
56307;SDS011;42217;50.422;7.210;2022-10-16T15:33:50;0.57;;;0.57;;
56307;SDS011;42217;50.422;7.210;2022-10-16T15:36:28;0.80;;;0.70;;
56307;SDS011;42217;50.422;7.210;2022-10-16T15:41:45;0.90;;;0.90;;
56307;SDS011;42217;50.422;7.210;2022-10-16T15:44:16;1.85;;;0.85;;
56307;SDS011;42217;50.422;7.210;2022-10-16T15:46:42;1.45;;;0.73;;
56307;SDS011;42217;50.422;7.210;2022-10-16T15:49:08;0.60;;;0.60;;
56307;SDS011;42217;50.422;7.210;2022-10-16T15:51:37;2.42;;;0.90;;
56307;SDS011;42217;50.422;7.210;2022-10-16T15:54:04;1.60;;;1.15;;
56307;SDS011;42217;50.422;7.210;2022-10-16T15:56:30;1.83;;;0.88;;
56307;SDS011;42217;50.422;7.210;2022-10-16T15:58:58;1.10;;;0.80;;
56307;SDS011;42217;50.422;7.210;2022-10-16T16:01:25;0.90;;;0.90;;
56307;SDS011;42217;50.422;7.210;2022-10-16T16:03:54;3.45;;;1.73;;
56307;SDS011;42217;50.422;7.210;2022-10-16T16:06:21;0.80;;;0.75;;
56307;SDS011;42217;50.422;7.210;2022-10-16T16:08:48;1.20;;;1.10;;
56307;SDS011;42217;50.422;7.210;2022-10-16T16:11:15;0.60;;;0.60;;
56307;SDS011;42217;50.422;7.210;2022-10-16T16:13:41;1.13;;;0.90;;
56307;SDS011;42217;50.422;7.210;2022-10-16T16:16:11;0.75;;;0.75;;
56307;SDS011;42217;50.422;7.210;2022-10-16T16:18:38;1.13;;;0.85;;
56307;SDS011;42217;50.422;7.210;2022-10-16T16:21:04;0.80;;;0.80;;
56307;SDS011;42217;50.422;7.210;2022-10-16T16:23:31;1.13;;;1.02;;
56307;SDS011;42217;50.422;7.210;2022-10-16T16:26:08;1.35;;;1.25;;
56307;SDS011;42217;50.422;7.210;2022-10-16T16:28:40;1.33;;;1.23;;
56307;SDS011;42217;50.422;7.210;2022-10-16T16:31:08;1.38;;;1.27;;
56307;SDS011;42217;50.422;7.210;2022-10-16T16:33:34;1.40;;;1.30;;
56307;SDS011;42217;50.422;7.210;2022-10-16T16:36:01;1.38;;;1.25;;
56307;SDS011;42217;50.422;7.210;2022-10-16T16:38:28;1.23;;;1.00;;
56307;SDS011;42217;50.422;7.210;2022-10-16T16:40:54;1.20;;;1.10;;
56307;SDS011;42217;50.422;7.210;2022-10-16T16:43:26;1.60;;;1.27;;
56307;SDS011;42217;50.422;7.210;2022-10-16T16:45:53;1.98;;;1.80;;
56307;SDS011;42217;50.422;7.210;2022-10-16T16:48:19;1.90;;;1.13;;
56307;SDS011;42217;50.422;7.210;2022-10-16T16:50:46;1.30;;;1.20;;
56307;SDS011;42217;50.422;7.210;2022-10-16T16:53:12;1.40;;;1.30;;
56307;SDS011;42217;50.422;7.210;2022-10-16T16:55:39;2.08;;;1.40;;
56307;SDS011;42217;50.422;7.210;2022-10-16T16:58:05;1.70;;;1.60;;
56307;SDS011;42217;50.422;7.210;2022-10-16T17:00:30;1.42;;;1.33;;
56307;SDS011;42217;50.422;7.210;2022-10-16T17:02:56;1.40;;;1.30;;
56307;SDS011;42217;50.422;7.210;2022-10-16T17:05:23;1.48;;;1.38;;
56307;SDS011;42217;50.422;7.210;2022-10-16T17:07:48;1.13;;;1.02;;
56307;SDS011;42217;50.422;7.210;2022-10-16T17:10:14;1.30;;;1.20;;
56307;SDS011;42217;50.422;7.210;2022-10-16T17:12:40;2.78;;;1.90;;
56307;SDS011;42217;50.422;7.210;2022-10-16T17:15:06;1.58;;;1.38;;
56307;SDS011;42217;50.422;7.210;2022-10-16T17:17:32;2.58;;;1.60;;
56307;SDS011;42217;50.422;7.210;2022-10-16T17:19:58;1.40;;;1.30;;
56307;SDS011;42217;50.422;7.210;2022-10-16T17:22:25;1.98;;;1.70;;
56307;SDS011;42217;50.422;7.210;2022-10-16T17:24:53;2.22;;;1.05;;
56307;SDS011;42217;50.422;7.210;2022-10-16T17:27:19;1.20;;;1.00;;
56307;SDS011;42217;50.422;7.210;2022-10-16T17:29:49;0.95;;;0.95;;
56307;SDS011;42217;50.422;7.210;2022-10-16T17:32:15;3.13;;;1.48;;
56307;SDS011;42217;50.422;7.210;2022-10-16T17:34:44;1.55;;;1.45;;
56307;SDS011;42217;50.422;7.210;2022-10-16T17:37:11;1.65;;;1.55;;
56307;SDS011;42217;50.422;7.210;2022-10-16T17:39:37;1.55;;;1.10;;
56307;SDS011;42217;50.422;7.210;2022-10-16T17:42:04;1.77;;;1.63;;
56307;SDS011;42217;50.422;7.210;2022-10-16T17:44:30;1.83;;;1.73;;
56307;SDS011;42217;50.422;7.210;2022-10-16T17:46:56;1.38;;;1.27;;
56307;SDS011;42217;50.422;7.210;2022-10-16T17:49:22;1.30;;;1.20;;
56307;SDS011;42217;50.422;7.210;2022-10-16T17:51:51;4.53;;;1.50;;
56307;SDS011;42217;50.422;7.210;2022-10-16T17:54:18;1.55;;;1.33;;
56307;SDS011;42217;50.422;7.210;2022-10-16T17:56:46;1.17;;;1.08;;
56307;SDS011;42217;50.422;7.210;2022-10-16T17:59:13;2.67;;;1.80;;
56307;SDS011;42217;50.422;7.210;2022-10-16T18:01:40;3.47;;;1.80;;
56307;SDS011;42217;50.422;7.210;2022-10-16T18:04:11;1.50;;;1.40;;
56307;SDS011;42217;50.422;7.210;2022-10-16T18:06:39;1.85;;;1.55;;
56307;SDS011;42217;50.422;7.210;2022-10-16T18:09:07;5.40;;;1.70;;
56307;SDS011;42217;50.422;7.210;2022-10-16T18:11:34;2.30;;;2.10;;
56307;SDS011;42217;50.422;7.210;2022-10-16T18:14:01;2.60;;;2.00;;
56307;SDS011;42217;50.422;7.210;2022-10-16T18:16:27;2.40;;;2.20;;
56307;SDS011;42217;50.422;7.210;2022-10-16T18:18:54;2.75;;;2.55;;
56307;SDS011;42217;50.422;7.210;2022-10-16T18:21:21;5.68;;;2.47;;
56307;SDS011;42217;50.422;7.210;2022-10-16T18:23:48;2.90;;;2.58;;
56307;SDS011;42217;50.422;7.210;2022-10-16T18:26:15;4.20;;;3.08;;
56307;SDS011;42217;50.422;7.210;2022-10-16T18:28:41;4.60;;;3.58;;
56307;SDS011;42217;50.422;7.210;2022-10-16T18:31:12;4.25;;;3.47;;
56307;SDS011;42217;50.422;7.210;2022-10-16T18:33:41;3.63;;;3.08;;
56307;SDS011;42217;50.422;7.210;2022-10-16T18:36:20;4.22;;;3.85;;
56307;SDS011;42217;50.422;7.210;2022-10-16T18:38:54;3.35;;;3.03;;
56307;SDS011;42217;50.422;7.210;2022-10-16T18:41:24;3.70;;;3.38;;
56307;SDS011;42217;50.422;7.210;2022-10-16T18:43:51;3.80;;;3.28;;
56307;SDS011;42217;50.422;7.210;2022-10-16T18:46:38;4.40;;;3.65;;
56307;SDS011;42217;50.422;7.210;2022-10-16T18:49:04;3.65;;;2.90;;
56307;SDS011;42217;50.422;7.210;2022-10-16T18:51:32;3.30;;;2.97;;
56307;SDS011;42217;50.422;7.210;2022-10-16T18:54:01;3.63;;;3.30;;
56307;SDS011;42217;50.422;7.210;2022-10-16T18:56:29;4.20;;;3.33;;
56307;SDS011;42217;50.422;7.210;2022-10-16T18:58:57;5.43;;;3.05;;
56307;SDS011;42217;50.422;7.210;2022-10-16T19:01:24;5.22;;;3.42;;
56307;SDS011;42217;50.422;7.210;2022-10-16T19:03:52;5.10;;;3.15;;
56307;SDS011;42217;50.422;7.210;2022-10-16T19:06:21;4.68;;;3.00;;
56307;SDS011;42217;50.422;7.210;2022-10-16T19:08:48;4.55;;;4.15;;
56307;SDS011;42217;50.422;7.210;2022-10-16T19:11:19;5.10;;;3.90;;
56307;SDS011;42217;50.422;7.210;2022-10-16T19:13:47;4.60;;;4.07;;
56307;SDS011;42217;50.422;7.210;2022-10-16T19:16:15;6.75;;;4.38;;
56307;SDS011;42217;50.422;7.210;2022-10-16T19:18:49;3.80;;;3.50;;
56307;SDS011;42217;50.422;7.210;2022-10-16T19:21:18;4.35;;;3.95;;
56307;SDS011;42217;50.422;7.210;2022-10-16T19:23:45;7.82;;;4.22;;
56307;SDS011;42217;50.422;7.210;2022-10-16T19:26:15;5.05;;;4.43;;
56307;SDS011;42217;50.422;7.210;2022-10-16T19:28:42;7.13;;;3.95;;
56307;SDS011;42217;50.422;7.210;2022-10-16T19:31:10;3.97;;;3.58;;
56307;SDS011;42217;50.422;7.210;2022-10-16T19:33:38;4.57;;;4.15;;
56307;SDS011;42217;50.422;7.210;2022-10-16T19:38:54;4.22;;;3.83;;
56307;SDS011;42217;50.422;7.210;2022-10-16T19:41:22;4.60;;;3.83;;
56307;SDS011;42217;50.422;7.210;2022-10-16T19:43:49;4.35;;;3.55;;
56307;SDS011;42217;50.422;7.210;2022-10-16T19:46:16;5.95;;;3.90;;
56307;SDS011;42217;50.422;7.210;2022-10-16T19:48:44;5.45;;;4.40;;
56307;SDS011;42217;50.422;7.210;2022-10-16T19:51:11;4.88;;;4.00;;
56307;SDS011;42217;50.422;7.210;2022-10-16T19:53:39;3.80;;;3.47;;
56307;SDS011;42217;50.422;7.210;2022-10-16T19:56:16;4.63;;;4.22;;
56307;SDS011;42217;50.422;7.210;2022-10-16T19:58:43;7.72;;;4.38;;
56307;SDS011;42217;50.422;7.210;2022-10-16T20:01:13;4.78;;;4.28;;
56307;SDS011;42217;50.422;7.210;2022-10-16T20:03:44;4.30;;;3.70;;
56307;SDS011;42217;50.422;7.210;2022-10-16T20:06:11;4.93;;;4.28;;
56307;SDS011;42217;50.422;7.210;2022-10-16T20:08:39;6.00;;;3.83;;
56307;SDS011;42217;50.422;7.210;2022-10-16T20:11:09;6.28;;;4.00;;
56307;SDS011;42217;50.422;7.210;2022-10-16T20:13:36;5.57;;;3.92;;
56307;SDS011;42217;50.422;7.210;2022-10-16T20:16:02;5.78;;;3.95;;
56307;SDS011;42217;50.422;7.210;2022-10-16T20:18:28;5.03;;;4.50;;
56307;SDS011;42217;50.422;7.210;2022-10-16T20:20:55;4.15;;;3.75;;
56307;SDS011;42217;50.422;7.210;2022-10-16T20:23:20;4.13;;;3.28;;
56307;SDS011;42217;50.422;7.210;2022-10-16T20:25:48;3.63;;;3.10;;
56307;SDS011;42217;50.422;7.210;2022-10-16T20:28:18;4.60;;;3.40;;
56307;SDS011;42217;50.422;7.210;2022-10-16T20:30:46;4.45;;;3.67;;
56307;SDS011;42217;50.422;7.210;2022-10-16T20:33:15;3.60;;;2.90;;
56307;SDS011;42217;50.422;7.210;2022-10-16T20:35:50;4.85;;;4.38;;
56307;SDS011;42217;50.422;7.210;2022-10-16T20:38:17;4.45;;;2.85;;
56307;SDS011;42217;50.422;7.210;2022-10-16T20:40:44;6.28;;;3.47;;
56307;SDS011;42217;50.422;7.210;2022-10-16T20:43:11;6.05;;;3.38;;
56307;SDS011;42217;50.422;7.210;2022-10-16T20:45:41;3.83;;;3.20;;
56307;SDS011;42217;50.422;7.210;2022-10-16T20:48:08;4.90;;;3.05;;
56307;SDS011;42217;50.422;7.210;2022-10-16T20:50:37;3.83;;;3.40;;
56307;SDS011;42217;50.422;7.210;2022-10-16T20:53:05;6.30;;;4.13;;
56307;SDS011;42217;50.422;7.210;2022-10-16T20:55:33;7.95;;;3.97;;
56307;SDS011;42217;50.422;7.210;2022-10-16T20:58:02;5.13;;;3.72;;
56307;SDS011;42217;50.422;7.210;2022-10-16T21:00:29;6.20;;;4.25;;
56307;SDS011;42217;50.422;7.210;2022-10-16T21:02:54;8.02;;;3.90;;
56307;SDS011;42217;50.422;7.210;2022-10-16T21:05:21;7.43;;;3.63;;
56307;SDS011;42217;50.422;7.210;2022-10-16T21:07:47;5.80;;;4.72;;
56307;SDS011;42217;50.422;7.210;2022-10-16T21:10:12;4.00;;;3.60;;
56307;SDS011;42217;50.422;7.210;2022-10-16T21:12:38;4.65;;;4.15;;
56307;SDS011;42217;50.422;7.210;2022-10-16T21:15:04;3.88;;;3.55;;
56307;SDS011;42217;50.422;7.210;2022-10-16T21:17:31;7.43;;;3.67;;
56307;SDS011;42217;50.422;7.210;2022-10-16T21:19:56;3.58;;;3.28;;
56307;SDS011;42217;50.422;7.210;2022-10-16T21:22:22;3.78;;;3.38;;
56307;SDS011;42217;50.422;7.210;2022-10-16T21:24:48;4.13;;;3.72;;
56307;SDS011;42217;50.422;7.210;2022-10-16T21:27:14;6.95;;;4.57;;
56307;SDS011;42217;50.422;7.210;2022-10-16T21:29:40;3.90;;;3.15;;
56307;SDS011;42217;50.422;7.210;2022-10-16T21:32:05;6.30;;;3.65;;
56307;SDS011;42217;50.422;7.210;2022-10-16T21:34:31;5.55;;;3.60;;
56307;SDS011;42217;50.422;7.210;2022-10-16T21:36:58;4.40;;;3.15;;
56307;SDS011;42217;50.422;7.210;2022-10-16T21:39:24;4.32;;;3.10;;
56307;SDS011;42217;50.422;7.210;2022-10-16T21:41:49;4.75;;;3.83;;
56307;SDS011;42217;50.422;7.210;2022-10-16T21:44:16;3.70;;;3.00;;
56307;SDS011;42217;50.422;7.210;2022-10-16T21:46:44;6.40;;;3.97;;
56307;SDS011;42217;50.422;7.210;2022-10-16T21:49:12;5.00;;;3.50;;
56307;SDS011;42217;50.422;7.210;2022-10-16T21:51:42;6.57;;;3.95;;
56307;SDS011;42217;50.422;7.210;2022-10-16T21:54:11;4.07;;;3.15;;
56307;SDS011;42217;50.422;7.210;2022-10-16T21:56:39;4.30;;;2.72;;
56307;SDS011;42217;50.422;7.210;2022-10-16T21:59:05;4.05;;;3.42;;
56307;SDS011;42217;50.422;7.210;2022-10-16T22:01:31;3.38;;;3.03;;
56307;SDS011;42217;50.422;7.210;2022-10-16T22:03:57;3.63;;;3.30;;
56307;SDS011;42217;50.422;7.210;2022-10-16T22:06:24;3.83;;;3.53;;
56307;SDS011;42217;50.422;7.210;2022-10-16T22:08:51;4.57;;;3.15;;
56307;SDS011;42217;50.422;7.210;2022-10-16T22:11:23;5.47;;;2.88;;
56307;SDS011;42217;50.422;7.210;2022-10-16T22:14:00;5.05;;;3.42;;
56307;SDS011;42217;50.422;7.210;2022-10-16T22:16:31;3.75;;;3.03;;
56307;SDS011;42217;50.422;7.210;2022-10-16T22:18:57;4.07;;;3.22;;
56307;SDS011;42217;50.422;7.210;2022-10-16T22:21:24;3.42;;;3.00;;
56307;SDS011;42217;50.422;7.210;2022-10-16T22:23:51;3.47;;;2.72;;
56307;SDS011;42217;50.422;7.210;2022-10-16T22:26:17;3.20;;;2.90;;
56307;SDS011;42217;50.422;7.210;2022-10-16T22:28:42;3.85;;;3.22;;
56307;SDS011;42217;50.422;7.210;2022-10-16T22:31:09;3.60;;;3.20;;
56307;SDS011;42217;50.422;7.210;2022-10-16T22:33:36;3.25;;;2.92;;
56307;SDS011;42217;50.422;7.210;2022-10-16T22:36:03;4.10;;;2.85;;
56307;SDS011;42217;50.422;7.210;2022-10-16T22:38:30;4.63;;;3.88;;
56307;SDS011;42217;50.422;7.210;2022-10-16T22:41:07;3.83;;;3.30;;
56307;SDS011;42217;50.422;7.210;2022-10-16T22:43:35;3.65;;;2.90;;
56307;SDS011;42217;50.422;7.210;2022-10-16T22:46:03;2.55;;;2.35;;
56307;SDS011;42217;50.422;7.210;2022-10-16T22:48:33;8.13;;;2.60;;
56307;SDS011;42217;50.422;7.210;2022-10-16T22:50:59;3.33;;;2.70;;
56307;SDS011;42217;50.422;7.210;2022-10-16T22:53:25;3.13;;;2.80;;
56307;SDS011;42217;50.422;7.210;2022-10-16T22:55:51;3.22;;;2.50;;
56307;SDS011;42217;50.422;7.210;2022-10-16T22:58:17;4.50;;;2.60;;
56307;SDS011;42217;50.422;7.210;2022-10-16T23:00:43;4.22;;;3.00;;
56307;SDS011;42217;50.422;7.210;2022-10-16T23:03:09;2.75;;;2.40;;
56307;SDS011;42217;50.422;7.210;2022-10-16T23:05:39;3.92;;;3.60;;
56307;SDS011;42217;50.422;7.210;2022-10-16T23:08:05;3.03;;;2.35;;
56307;SDS011;42217;50.422;7.210;2022-10-16T23:10:32;5.75;;;2.80;;
56307;SDS011;42217;50.422;7.210;2022-10-16T23:12:58;2.97;;;2.67;;
56307;SDS011;42217;50.422;7.210;2022-10-16T23:15:24;2.92;;;2.35;;
56307;SDS011;42217;50.422;7.210;2022-10-16T23:17:50;3.08;;;2.75;;
56307;SDS011;42217;50.422;7.210;2022-10-16T23:20:16;3.80;;;2.55;;
56307;SDS011;42217;50.422;7.210;2022-10-16T23:22:41;5.68;;;2.35;;
56307;SDS011;42217;50.422;7.210;2022-10-16T23:25:07;2.80;;;2.30;;
56307;SDS011;42217;50.422;7.210;2022-10-16T23:27:33;4.13;;;2.83;;
56307;SDS011;42217;50.422;7.210;2022-10-16T23:29:59;8.68;;;3.10;;
56307;SDS011;42217;50.422;7.210;2022-10-16T23:32:25;3.20;;;2.78;;
56307;SDS011;42217;50.422;7.210;2022-10-16T23:34:50;3.20;;;2.90;;
56307;SDS011;42217;50.422;7.210;2022-10-16T23:37:16;3.08;;;2.88;;
56307;SDS011;42217;50.422;7.210;2022-10-16T23:39:42;4.35;;;2.50;;
56307;SDS011;42217;50.422;7.210;2022-10-16T23:42:07;3.17;;;2.65;;
56307;SDS011;42217;50.422;7.210;2022-10-16T23:44:33;2.50;;;2.05;;
56307;SDS011;42217;50.422;7.210;2022-10-16T23:46:59;4.95;;;3.15;;
56307;SDS011;42217;50.422;7.210;2022-10-16T23:49:25;2.78;;;2.58;;
56307;SDS011;42217;50.422;7.210;2022-10-16T23:51:50;2.95;;;2.58;;
56307;SDS011;42217;50.422;7.210;2022-10-16T23:54:16;5.30;;;3.50;;
56307;SDS011;42217;50.422;7.210;2022-10-16T23:56:42;3.33;;;3.03;;
56307;SDS011;42217;50.422;7.210;2022-10-16T23:59:07;4.45;;;3.03;;
